地図

経路データ

SID SEASON NUMBER BASIN SUBBASIN NAME ISO_TIME NATURE LAT LON WMO_WIND WMO_PRES WMO_AGENCY TRACK_TYPE DIST2LAND LANDFALL IFLAG USA_AGENCY USA_ATCF_ID USA_LAT USA_LON USA_RECORD USA_STATUS USA_WIND USA_PRES USA_SSHS USA_R34_NE USA_R34_SE USA_R34_SW USA_R34_NW USA_R50_NE USA_R50_SE USA_R50_SW USA_R50_NW USA_R64_NE USA_R64_SE USA_R64_SW USA_R64_NW USA_POCI USA_ROCI USA_RMW USA_EYE TOKYO_LAT TOKYO_LON TOKYO_GRADE TOKYO_WIND TOKYO_PRES TOKYO_R50_DIR TOKYO_R50_LONG TOKYO_R50_SHORT TOKYO_R30_DIR TOKYO_R30_LONG TOKYO_R30_SHORT TOKYO_LAND CMA_LAT CMA_LON CMA_CAT CMA_WIND CMA_PRES HKO_LAT HKO_LON HKO_CAT HKO_WIND HKO_PRES NEWDELHI_LAT NEWDELHI_LON NEWDELHI_GRADE NEWDELHI_WIND NEWDELHI_PRES NEWDELHI_CI NEWDELHI_DP NEWDELHI_POCI REUNION_LAT REUNION_LON REUNION_TYPE REUNION_WIND REUNION_PRES REUNION_TNUM REUNION_CI REUNION_RMW REUNION_R34_NE REUNION_R34_SE REUNION_R34_SW REUNION_R34_NW REUNION_R50_NE REUNION_R50_SE REUNION_R50_SW REUNION_R50_NW REUNION_R64_NE REUNION_R64_SE REUNION_R64_SW REUNION_R64_NW BOM_LAT BOM_LON BOM_TYPE BOM_WIND BOM_PRES BOM_TNUM BOM_CI BOM_RMW BOM_R34_NE BOM_R34_SE BOM_R34_SW BOM_R34_NW BOM_R50_NE BOM_R50_SE BOM_R50_SW BOM_R50_NW BOM_R64_NE BOM_R64_SE BOM_R64_SW BOM_R64_NW BOM_ROCI BOM_POCI BOM_EYE BOM_POS_METHOD BOM_PRES_METHOD NADI_LAT NADI_LON NADI_CAT NADI_WIND NADI_PRES WELLINGTON_LAT WELLINGTON_LON WELLINGTON_WIND WELLINGTON_PRES DS824_LAT DS824_LON DS824_STAGE DS824_WIND DS824_PRES TD9636_LAT TD9636_LON TD9636_STAGE TD9636_WIND TD9636_PRES TD9635_LAT TD9635_LON TD9635_WIND TD9635_PRES TD9635_ROCI NEUMANN_LAT NEUMANN_LON NEUMANN_CLASS NEUMANN_WIND NEUMANN_PRES MLC_LAT MLC_LON MLC_CLASS MLC_WIND MLC_PRES USA_GUST BOM_GUST BOM_GUST_PER REUNION_GUST REUNION_GUST_PER USA_SEAHGT USA_SEARAD_NE USA_SEARAD_SE USA_SEARAD_SW USA_SEARAD_NW STORM_SPEED STORM_DIR
1880248N22283 1880 17 NA NA NOT_NAMED 1880-09-04 00:00:00 TS 21.8000 -77.0000 main 15 11 _____________O -1 21.8000 -77.0000 TD 30 2 294
1880248N22283 1880 17 NA NA NOT_NAMED 1880-09-04 03:00:00 TS 21.8425 -77.1000 main 11 11 _____________P -1 21.8425 -77.1000 TD 30 2 299
1880248N22283 1880 17 NA NA NOT_NAMED 1880-09-04 06:00:00 TS 21.9000 -77.2000 main 22 22 _____________O -1 21.9000 -77.2000 TD 30 2 307
1880248N22283 1880 17 NA NA NOT_NAMED 1880-09-04 09:00:00 TS 21.9850 -77.3000 main 33 33 _____________P -1 21.9850 -77.3000 TD 30 3 317
1880248N22283 1880 17 NA NA NOT_NAMED 1880-09-04 12:00:00 TS 22.1000 -77.4000 main 45 45 _____________O -1 22.1000 -77.4000 TD 30 3 324
1880248N22283 1880 17 NA NA NOT_NAMED 1880-09-04 15:00:00 TS 22.2425 -77.5000 main 45 45 _____________P -1 22.2425 -77.5000 TD 30 4 329
1880248N22283 1880 17 NA NA NOT_NAMED 1880-09-04 18:00:00 TS 22.4000 -77.6000 main 59 59 _____________O -1 22.4000 -77.6000 TD 30 4 329
1880248N22283 1880 17 NA NA NOT_NAMED 1880-09-04 21:00:00 TS 22.5500 -77.7000 main 73 63 _____________P -1 22.5500 -77.7000 TD 30 4 329
1880248N22283 1880 17 NA NA NOT_NAMED 1880-09-05 00:00:00 TS 22.7000 -77.8000 main 76 75 _____________O -1 22.7000 -77.8000 TD 30 4 327
1880248N22283 1880 17 NA NA NOT_NAMED 1880-09-05 03:00:00 TS 22.8425 -77.9075 main 75 75 _____________P -1 22.8425 -77.9075 TD 30 4 329
1880248N22283 1880 17 NA NA NOT_NAMED 1880-09-05 06:00:00 TS 23.0000 -78.0000 main 88 88 _____________O -1 23.0000 -78.0000 TD 30 4 340
1880248N22283 1880 17 NA NA NOT_NAMED 1880-09-05 09:00:00 TS 23.1925 -78.0501 main 105 89 _____________P -1 23.1925 -78.0501 TD 32 4 348
1880248N22283 1880 17 NA NA NOT_NAMED 1880-09-05 12:00:00 TS 23.4000 -78.1000 main 89 70 _____________O -1 23.4000 -78.1000 TS 35 4 342
1880248N22283 1880 17 NA NA NOT_NAMED 1880-09-05 15:00:00 TS 23.6075 -78.1925 main 70 54 _____________P -1 23.6075 -78.1925 TS 35 4 336
1880248N22283 1880 17 NA NA NOT_NAMED 1880-09-05 18:00:00 TS 23.8000 -78.3000 main 54 45 _____________O -1 23.8000 -78.3000 TS 35 4 331
1880248N22283 1880 17 NA NA NOT_NAMED 1880-09-05 21:00:00 TS 23.9500 -78.4001 main 52 45 _____________P -1 23.9500 -78.4001 TS 37 4 329
1880248N22283 1880 17 NA NA NOT_NAMED 1880-09-06 00:00:00 TS 24.1000 -78.5000 main 45 35 _____________O -1 24.1000 -78.5000 TS 40 4 332
1880248N22283 1880 17 NA NA NOT_NAMED 1880-09-06 03:00:00 TS 24.2925 -78.6000 main 35 23 _____________P -1 24.2925 -78.6000 TS 40 4 336
1880248N22283 1880 17 NA NA NOT_NAMED 1880-09-06 06:00:00 TS 24.5000 -78.7000 main 23 20 _____________O -1 24.5000 -78.7000 TS 40 5 335
1880248N22283 1880 17 NA NA NOT_NAMED 1880-09-06 09:00:00 TS 24.7000 -78.8075 main 32 32 _____________P -1 24.7000 -78.8075 TS 42 4 336
1880248N22283 1880 17 NA NA NOT_NAMED 1880-09-06 12:00:00 TS 24.9000 -78.9000 main 52 52 _____________O -1 24.9000 -78.9000 TS 45 4 336
1880248N22283 1880 17 NA NA NOT_NAMED 1880-09-06 15:00:00 TS 25.0325 -78.9650 main 67 67 _____________P -1 25.0325 -78.9650 TS 45 4 348
1880248N22283 1880 17 NA NA NOT_NAMED 1880-09-06 18:00:00 TS 25.3000 -79.0000 main 89 89 _____________O -1 25.3000 -79.0000 TS 45 9 355
1880248N22283 1880 17 NA NA NOT_NAMED 1880-09-06 21:00:00 TS 25.8825 -79.0444 main 109 101 _____________P -1 25.8825 -79.0444 TS 47 13 1
1880248N22283 1880 17 NA NA NOT_NAMED 1880-09-07 00:00:00 TS 26.6000 -79.0000 main 101 99 _____________O -1 26.6000 -79.0000 TS 50 14 9
1880248N22283 1880 17 NA NA NOT_NAMED 1880-09-07 03:00:00 TS 27.2499 -78.8099 main 126 126 _____________P -1 27.2499 -78.8099 TS 52 14 19
1880248N22283 1880 17 NA NA NOT_NAMED 1880-09-07 06:00:00 TS 27.9000 -78.5000 main 184 184 _____________O -1 27.9000 -78.5000 TS 55 14 25
1880248N22283 1880 17 NA NA NOT_NAMED 1880-09-07 09:00:00 TS 28.5501 -78.1151 main 234 234 _____________P -1 28.5501 -78.1151 TS 57 15 28
1880248N22283 1880 17 NA NA NOT_NAMED 1880-09-07 12:00:00 TS 29.2000 -77.7000 main 283 283 _____________O -1 29.2000 -77.7000 TS 60 14 25
1880248N22283 1880 17 NA NA NOT_NAMED 1880-09-07 15:00:00 TS 29.8411 -77.4372 main 333 333 _____________P -1 29.8411 -77.4372 TS 60 14 25
1880248N22283 1880 17 NA NA NOT_NAMED 1880-09-07 18:00:00 TS 30.5000 -77.0000 main 359 350 _____________O -1 30.5000 -77.0000 TS 60 18 42
1880248N22283 1880 17 NA NA NOT_NAMED 1880-09-07 21:00:00 TS 31.1793 -76.0611 main 349 349 _____________P -1 31.1793 -76.0611 TS 62 26 56
1880248N22283 1880 17 NA NA NOT_NAMED 1880-09-08 00:00:00 TS 31.9333 -74.5000 80 hurdat_atl main 363 341 O____________O hurdat_atl AL071880 32.0000 -73.5000 HU 80 1 31.9000 -75.0000 HU 65 26 53
1880248N22283 1880 17 NA NA NOT_NAMED 1880-09-08 03:00:00 TS 32.7206 -73.6334 main 348 340 P____________P AL071880 32.7503 -73.0413 HU 80 1 32.6910 -74.2255 HU 67 21 41
1880248N22283 1880 17 NA NA NOT_NAMED 1880-09-08 06:00:00 TS 33.5000 -72.9000 80 hurdat_atl main 346 345 O____________O hurdat_atl AL071880 33.5000 -72.5000 HU 80 1 33.5000 -73.5000 HU 70 987 20 40
1880248N22283 1880 17 NA NA NOT_NAMED 1880-09-08 09:00:00 TS 34.2345 -72.1054 main 356 351 P____________P AL071880 34.2496 -71.8163 HU 80 1 34.2043 -72.6836 HU 72 984 20 42
1880248N22283 1880 17 NA NA NOT_NAMED 1880-09-08 12:00:00 TS 35.0000 -71.2667 80 hurdat_atl main 390 390 O____________O hurdat_atl AL071880 35.0000 -71.0000 HU 80 1 35.0000 -71.8000 HU 75 982 22 42
1880248N22283 1880 17 NA NA NOT_NAMED 1880-09-08 15:00:00 TS 35.8418 -70.3168 main 467 467 P____________P AL071880 35.7353 -70.0639 HU 80 1 36.0548 -70.8226 HU 75 23 42
1880248N22283 1880 17 NA NA NOT_NAMED 1880-09-08 18:00:00 TS 36.7333 -69.3333 80 hurdat_atl main 536 473 O____________O hurdat_atl AL071880 36.5000 -69.1000 HU 80 1 37.2000 -69.8000 HU 75 24 40
1880248N22283 1880 17 NA NA NOT_NAMED 1880-09-08 21:00:00 TS 37.6560 -68.4433 main 465 410 P____________P AL071880 37.3411 -68.2551 HU 75 1 38.2860 -68.8198 HU 75 23 38
1880248N22283 1880 17 NA NA NOT_NAMED 1880-09-09 00:00:00 TS 38.5667 -67.5333 70 hurdat_atl main 404 384 O____________O hurdat_atl AL071880 38.2000 -67.4000 HU 70 1 39.3000 -67.8000 HU 75 23 41
1880248N22283 1880 17 NA NA NOT_NAMED 1880-09-09 03:00:00 TS 39.3956 -66.4962 main 390 367 P____________P AL071880 38.9999 -66.4131 HU 70 1 40.1872 -66.6623 HU 75 23 45
1880248N22283 1880 17 NA NA NOT_NAMED 1880-09-09 06:00:00 TS 40.2000 -65.4333 70 hurdat_atl main 367 285 O____________O hurdat_atl AL071880 39.8000 -65.4000 HU 70 1 41.0000 -65.5000 HU 75 22 44
1880248N22283 1880 17 NA NA NOT_NAMED 1880-09-09 09:00:00 TS 41.0130 -64.4798 main 285 234 P____________P AL071880 40.6256 -64.4753 HU 65 1 41.7877 -64.4887 HU 72 22 42
1880248N22283 1880 17 NA NA NOT_NAMED 1880-09-09 12:00:00 TS 41.8667 -63.4333 60 hurdat_atl main 235 215 O____________O hurdat_atl AL071880 41.5000 -63.5000 TS 60 0 42.6000 -63.3000 HU 70 996 25 45
1880248N22283 1880 17 NA NA NOT_NAMED 1880-09-09 15:00:00 TS 42.8003 -62.0984 main 214 169 P____________P AL071880 42.4422 -62.3438 TS 60 0 43.5166 -61.6077 HU 67 28 48
1880248N22283 1880 17 NA NA NOT_NAMED 1880-09-09 18:00:00 TS 43.7333 -60.6333 60 hurdat_atl main 171 143 O____________O hurdat_atl AL071880 43.4000 -61.1000 TS 60 0 44.4000 -59.7000 HU 65 27 49
1880248N22283 1880 17 NA NA NOT_NAMED 1880-09-09 21:00:00 TS 44.5838 -59.2314 main 145 142 P____________P AL071880 44.3049 -59.8964 TS 60 0 45.1417 -57.9016 HU 62 26 51
1880248N22283 1880 17 NA NA NOT_NAMED 1880-09-10 00:00:00 TS 45.4000 -57.7667 60 hurdat_atl main 178 76 O____________O hurdat_atl AL071880 45.2000 -58.6000 TS 60 0 45.8000 -56.1000 TS 60 27 52
1880248N22283 1880 17 NA NA NOT_NAMED 1880-09-10 03:00:00 TS 46.2436 -56.1561 main 76 26 P____________P AL071880 46.1209 -57.1226 TS 60 0 46.4889 -54.2232 TS 60 28 55
1880248N22283 1880 17 NA NA NOT_NAMED 1880-09-10 06:00:00 TS 47.0000 -54.4667 60 hurdat_atl main 30 0 O____________O hurdat_atl AL071880 47.0000 -55.5000 TS 60 0 47.0000 -52.4000 TS 60 26 60
1880248N22283 1880 17 NA NA NOT_NAMED 1880-09-10 09:00:00 TS 47.5701 -52.7864 main 0 0 P____________P AL071880 47.7694 -53.8099 TS 55 0 47.1715 -50.7396 TS 60 26 68
1880248N22283 1880 17 NA NA NOT_NAMED 1880-09-10 12:00:00 TS 47.9800 -50.8800 50 hurdat_atl main 138 138 O____________O hurdat_atl AL071880 48.5000 -52.0000 TS 50 0 47.2000 -49.2000 TS 60 27 75
1880248N22283 1880 17 NA NA NOT_NAMED 1880-09-10 15:00:00 TS 48.2718 -48.8135 main 295 295 P____________P AL071880 49.2502 -50.0545 TS 50 0 47.2935 -47.5724 TS 60 27 84
1880248N22283 1880 17 NA NA NOT_NAMED 1880-09-10 18:00:00 MX 48.2667 -46.8000 50 hurdat_atl main 439 439 O____________O hurdat_atl AL071880 50.0000 -48.0000 TS 50 0 47.4000 -46.2000 EX 60 24 108
1880248N22283 1880 17 NA NA NOT_NAMED 1880-09-10 21:00:00 ET 47.5448 -45.4115 main 538 538 _____________P AL071880 TS -1 47.5448 -45.4115 EX 60 15 112
1880248N22283 1880 17 NA NA NOT_NAMED 1880-09-11 00:00:00 ET 47.7000 -44.7000 main 589 589 _____________O -1 47.7000 -44.7000 EX 60 13 78
1880248N22283 1880 17 NA NA NOT_NAMED 1880-09-11 03:00:00 ET 47.8082 -43.5245 main 679 679 _____________P -1 47.8082 -43.5245 EX 60 17 83
1880248N22283 1880 17 NA NA NOT_NAMED 1880-09-11 06:00:00 ET 47.9000 -42.2000 main 775 775 _____________O -1 47.9000 -42.2000 EX 60 17 84
1880248N22283 1880 17 NA NA NOT_NAMED 1880-09-11 09:00:00 ET 47.9914 -40.9415 main 871 871 _____________P -1 47.9914 -40.9415 EX 60 17 83
1880248N22283 1880 17 NA NA NOT_NAMED 1880-09-11 12:00:00 ET 48.1000 -39.7000 main 960 960 _____________O -1 48.1000 -39.7000 EX 60 16 81
1880248N22283 1880 17 NA NA NOT_NAMED 1880-09-11 15:00:00 ET 48.2485 -38.4928 main 1048 1048 _____________P -1 48.2485 -38.4928 EX 60 16 79
1880248N22283 1880 17 NA NA NOT_NAMED 1880-09-11 18:00:00 ET 48.4000 -37.3000 main 1136 1136 _____________O -1 48.4000 -37.3000 EX 60 16 81
1880248N22283 1880 17 NA NA NOT_NAMED 1880-09-11 21:00:00 ET 48.5062 -36.0990 main 1224 1224 _____________P -1 48.5062 -36.0990 EX 60 16 83
1880248N22283 1880 17 NA NA NOT_NAMED 1880-09-12 00:00:00 ET 48.6000 -34.9000 main 1312 1312 _____________O -1 48.6000 -34.9000 EX 60 16 83
1880248N22283 1880 17 NA NA NOT_NAMED 1880-09-12 03:00:00 ET 48.6985 -33.7070 main 1397 1397 _____________P -1 48.6985 -33.7070 EX 60 16 83
1880248N22283 1880 17 NA NA NOT_NAMED 1880-09-12 06:00:00 ET 48.8000 -32.5000 main 1421 1421 _____________O -1 48.8000 -32.5000 EX 60 16 83
1880248N22283 1880 17 NA NA NOT_NAMED 1880-09-12 09:00:00 ET 48.8919 -31.2416 main 1452 1415 _____________P -1 48.8919 -31.2416 EX 60 16 83
1880248N22283 1880 17 NA NA NOT_NAMED 1880-09-12 12:00:00 ET 49.0000 -30.0000 main 1408 1330 _____________O -1 49.0000 -30.0000 EX 60 16 81
1880248N22283 1880 17 NA NA NOT_NAMED 1880-09-12 15:00:00 ET 49.1486 -28.8278 main 1323 1248 _____________P -1 49.1486 -28.8278 EX 60 15 79
1880248N22283 1880 17 NA NA NOT_NAMED 1880-09-12 18:00:00 ET 49.3000 -27.7000 main 1241 1170 _____________O -1 49.3000 -27.7000 EX 60 15 80
1880248N22283 1880 17 NA NA NOT_NAMED 1880-09-12 21:00:00 ET 49.3987 -26.5910 main 1163 1092 _____________P -1 49.3987 -26.5910 EX 60 14 82
1880248N22283 1880 17 NA NA NOT_NAMED 1880-09-13 00:00:00 ET 49.5000 -25.5000 main 1085 1014 _____________O -1 49.5000 -25.5000 EX 60 14 80
1880248N22283 1880 17 NA NA NOT_NAMED 1880-09-13 03:00:00 ET 49.6487 -24.4078 main 1008 933 _____________P -1 49.6487 -24.4078 EX 60 14 78
1880248N22283 1880 17 NA NA NOT_NAMED 1880-09-13 06:00:00 ET 49.8000 -23.3000 main 926 849 _____________O -1 49.8000 -23.3000 EX 60 15 79
1880248N22283 1880 17 NA NA NOT_NAMED 1880-09-13 09:00:00 ET 49.9211 -22.1726 main 849 772 _____________P -1 49.9211 -22.1726 EX 60 15 82
1880248N22283 1880 17 NA NA NOT_NAMED 1880-09-13 12:00:00 ET 50.0000 -21.0000 main 765 685 _____________O -1 50.0000 -21.0000 EX 60 15 87
1880248N22283 1880 17 NA NA NOT_NAMED 1880-09-13 15:00:00 ET 50.0141 -19.7639 main 685 605 _____________P -1 50.0141 -19.7639 EX 60 16 90
1880248N22283 1880 17 NA NA NOT_NAMED 1880-09-13 18:00:00 ET 50.0000 -18.5000 main 599 520 _____________O -1 50.0000 -18.5000 EX 60 16 91
1880248N22283 1880 17 NA NA NOT_NAMED 1880-09-13 21:00:00 ET 49.9987 -17.2500 main 514 444 _____________P -1 49.9987 -17.2500 EX 60 16 90
1880248N22283 1880 17 NA NA NOT_NAMED 1880-09-14 00:00:00 ET 50.0000 -16.0000 main 438 366 _____________O -1 50.0000 -16.0000 EX 60 16 90
1880248N22283 1880 17 NA NA NOT_NAMED 1880-09-14 03:00:00 ET 49.9987 -14.7500 main 360 296 _____________P -1 49.9987 -14.7500 EX 60 16 90
1880248N22283 1880 17 NA NA NOT_NAMED 1880-09-14 06:00:00 ET 50.0000 -13.5000 main 291 230 _____________O -1 50.0000 -13.5000 EX 60 976 16 90
1880248N22283 1880 17 NA NA NOT_NAMED 1880-09-14 09:00:00 ET 50.0027 -12.2501 main 230 180 _____________P -1 50.0027 -12.2501 EX 60 16 90
1880248N22283 1880 17 NA NA NOT_NAMED 1880-09-14 12:00:00 ET 50.0000 -11.0000 main 176 _____________O -1 50.0000 -11.0000 EX 60 16 90

IBTrACS Databaseについて

本データベースは、米国NOAAが公開する1842年以降の世界の熱帯低気圧のベストトラックデータアーカイブInternational Best Track Archive for Climate Stewardship (IBTrACS)を、ウェブで閲覧しやすい形式に変換したものです。

最終更新日:2021-11-26